Flight Track Log - Related Links

Times and Time Zones

All times are in EDT time to prevent confusion due to time zone crossing. See the SKW6280 flight status page for this flight to view local times or setup timezone preferences in your user account.

Time Position Orientation Groundspeed Altitude Reporting Facility
EDT Latitude Longitude Course Direction KTS MPH feet Rate Location/Type
Mon 12:18:00 PM 39.9747 -104.0235 77° East  Level Estimated
Mon 12:19:00 PM 40.0023 -103.8607 77° East  Level Estimated
Mon 12:20:00 PM 40.0298 -103.6978 78° East  Level Estimated
Mon 12:21:00 PM 40.0570 -103.5348 78° East  Level Estimated
Mon 12:22:00 PM 40.0840 -103.3716 78° East  Level Estimated
Mon 12:23:00 PM 40.1108 -103.2084 78° East  Level Estimated
Mon 12:24:00 PM 40.1373 -103.0450 78° East  Level Estimated
Mon 12:25:00 PM 40.1636 -102.8814 78° East  Level Estimated
Mon 12:26:00 PM 40.1897 -102.7178 78° East  Level Estimated
Mon 12:27:00 PM 40.2156 -102.5540 78° East  Level Estimated
Mon 12:28:00 PM 40.2412 -102.3901 78° East  Level Estimated
Mon 12:29:00 PM 40.2666 -102.2260 78° East  Level Estimated
Mon 12:30:00 PM 40.2917 -102.0619 79° East  Level Estimated
Mon 12:31:00 PM 40.3166 -101.8976 79° East  Level Estimated
Mon 12:32:00 PM 40.3413 -101.7332 79° East  Level Estimated
Mon 12:33:00 PM 40.3658 -101.5686 79° East  Level Estimated
Mon 12:34:00 PM 40.3900 -101.4040 79° East  Level Estimated
Mon 12:35:00 PM 40.4140 -101.2393 79° East  Level Estimated
Mon 12:36:00 PM 40.4377 -101.0744 79° East  Level Estimated
Mon 12:37:00 PM 40.4613 -100.9094 79° East  Level Estimated
Mon 12:38:00 PM 40.4845 -100.7443 79° East  Level Estimated
Mon 12:39:00 PM 40.5076 -100.5791 80° East  Level Estimated
Mon 12:40:00 PM 40.5304 -100.4137 80° East  Level Estimated
Mon 12:41:00 PM 40.5530 -100.2483 80° East  Level Estimated
Mon 12:42:00 PM 40.5753 -100.0827 80° East  Level Estimated
Mon 12:43:00 PM 40.5974 -99.9171 80° East  Level Estimated
Mon 12:44:00 PM 40.6193 -99.7513 80° East  Level Estimated
Mon 12:45:00 PM 40.6409 -99.5854 80° East  Level Estimated
Mon 12:46:00 PM 40.6623 -99.4194 80° East  Level Estimated
Mon 12:47:00 PM 40.6835 -99.2533 80° East  Level Estimated
Mon 12:48:00 PM 40.7044 -99.0871 81° East  Level Estimated
Mon 12:49:00 PM 40.7251 -98.9208 81° East  Level Estimated
Mon 12:50:00 PM 40.7455 -98.7544 81° East  Level Estimated
Mon 12:51:00 PM 40.7657 -98.5879 81° East  Level Estimated
Mon 12:52:00 PM 40.7857 -98.4213 81° East  Level Estimated
Mon 12:53:00 PM 40.8054 -98.2546 81° East  Level Estimated
Mon 12:54:00 PM 40.8249 -98.0878 81° East  Level Estimated
Mon 12:55:00 PM 40.8441 -97.9209 81° East  Level Estimated
Mon 12:56:00 PM 40.8631 -97.7539 81° East  Level Estimated
Mon 12:57:00 PM 40.8819 -97.5868 82° East  Level Estimated
Mon 12:58:00 PM 40.9004 -97.4196 82° East  Level Estimated
Mon 12:59:00 PM 40.9187 -97.2523 82° East  Level Estimated
Mon 01:00:00 PM 40.9367 -97.0849 82° East  Level Estimated
Mon 01:01:00 PM 40.9545 -96.9174 82° East  Level Estimated
Mon 01:02:00 PM 40.9720 -96.7499 82° East  Level Estimated
Mon 01:03:00 PM 40.9894 -96.5823 82° East  Level Estimated
Mon 01:04:00 PM 41.0064 -96.4145 82° East  Level Estimated
Mon 01:05:00 PM 41.0233 -96.2467 82° East  Level Estimated
Mon 01:06:00 PM 41.0398 -96.0788 82° East  Level Estimated
Mon 01:07:00 PM 41.0562 -95.9108 83° East  Level Estimated
Mon 01:08:00 PM 41.0723 -95.7427 83° East  Level Estimated
Mon 01:09:00 PM 41.0881 -95.5746 83° East  Level Estimated
Mon 01:10:00 PM 41.1037 -95.4064 83° East  Level Estimated
Mon 01:11:00 PM 41.1191 -95.2381 83° East  Level Estimated
Mon 01:12:00 PM 41.1342 -95.0697 83° East  Level Estimated
Mon 01:13:00 PM 41.1490 -94.9012 83° East  Level Estimated
Mon 01:14:00 PM 41.1637 -94.7327 83° East  Level Estimated
Mon 01:15:00 PM 41.1780 -94.5640 83° East  Level Estimated
Mon 01:16:00 PM 41.1922 -94.3953 84° East  Level Estimated
Mon 01:17:00 PM 41.2060 -94.2266 84° East  Level Estimated
Mon 01:18:00 PM 41.2197 -94.0577 84° East  Level Estimated
Mon 01:19:00 PM 41.2331 -93.8888 84° East  Level Estimated
Mon 01:20:00 PM 41.2462 -93.7199 84° East  Level Estimated
Mon 01:21:00 PM 41.2591 -93.5508 84° East  Level Estimated
Mon 01:22:00 PM 41.2718 -93.3817 84° East  Level Estimated
Mon 01:23:00 PM 41.2842 -93.2126 84° East  Level Estimated
Mon 01:24:00 PM 41.2963 -93.0433 84° East  Level Estimated
Mon 01:25:00 PM 41.3082 -92.8740 85° East  Level Estimated
Mon 01:26:00 PM 41.3199 -92.7047 85° East  Level Estimated
Mon 01:27:00 PM 41.3313 -92.5352 85° East  Level Estimated
Mon 01:28:00 PM 41.3424 -92.3658 85° East  Level Estimated
Mon 01:29:00 PM 41.3534 -92.1962 85° East  Level Estimated
Mon 01:30:00 PM 41.3640 -92.0266 85° East  Level Estimated
Mon 01:31:00 PM 41.3744 -91.8570 85° East  Level Estimated
Mon 01:32:00 PM 41.3846 -91.6873 85° East  Level Estimated
Mon 01:33:00 PM 41.3945 -91.5176 85° East  Level Estimated
Mon 01:34:00 PM 41.4042 -91.3478 86° East  Level Estimated
Mon 01:35:00 PM 41.4136 -91.1779 86° East  Level Estimated
Mon 01:36:00 PM 41.4227 -91.0080 86° East  Level Estimated
Mon 01:37:00 PM 41.4317 -90.8381 86° East  Level Estimated
Mon 01:38:00 PM 41.4403 -90.6681 86° East  Level Estimated
Mon 01:39:00 PM 41.4483 -90.5075 86° East  Level Estimated
Mon 01:40:00 PM 41.4483 -90.5075 181° South  Level Estimated
Mon 01:41:00 PM 41.4483 -90.5075 181° South  Level Estimated
Mon 01:42:00 PM 41.4483 -90.5075 181° South  Level Estimated
Mon 01:43:00 PM 41.4483 -90.5075 181° South  Level Estimated
Mon 01:44:00 PM 41.4483 -90.5075 181° South  Level Estimated
Mon 01:45:00 PM 41.4483 -90.5075 181° South  Level Estimated
Mon 01:46:00 PM 41.4483 -90.5075 181° South  Level Estimated
Mon 01:47:00 PM 41.4483 -90.5075 181° South  Level Estimated
Mon 01:48:00 PM 41.4483 -90.5075 181° South  Level Estimated
Mon 01:49:00 PM 41.4483 -90.5075 181° South  Level Estimated
Mon 01:50:00 PM 41.4483 -90.5075 181° South  Level Estimated
Mon 01:51:00 PM 41.4483 -90.5075 181° South  Level Estimated

Login

Don't have an account? Register now (free) for customized features, flight alerts, and more!